Time;durP1;ratioP1;P1;durP2;ratioP2;P2;SDS_P1;SDS_P2;PMS_P1;PMS_P2;Temp;Humidity;BMP_temperature;BMP_pressure;BME280_temperature;BME280_humidity;BME280_pressure;Samples;Min_cycle;Max_cycle;Signal;HPM_P1;HPM_P2
2022/12/29 00:01:38;;;;;;;2.13;0.68;;;;;;;11.47;100.00;99929.25;5047595;28;20047;-72
2022/12/29 00:04:05;;;;;;;0.90;0.75;;;;;;;11.48;100.00;99919.72;5036773;28;20567;-70
2022/12/29 00:06:39;;;;;;;2.20;1.00;;;;;;;11.53;100.00;99910.91;5042775;28;20118;-71
2022/12/29 00:09:06;;;;;;;2.10;0.95;;;;;;;11.60;100.00;99908.81;5042527;28;20802;-73
2022/12/29 00:11:33;;;;;;;1.33;0.88;;;;;;;11.60;100.00;99894.97;5035318;28;20045;-72
2022/12/29 00:16:51;;;;;;;1.98;0.70;;;;;;;11.62;100.00;99898.13;5043691;28;20056;-73
2022/12/29 00:36:06;;;;;;;1.75;0.77;;;;;;;11.33;100.00;99876.84;5040192;28;20053;-72
2022/12/29 00:44:10;;;;;;;1.75;0.98;;;;;;;11.23;100.00;99863.97;5045470;28;21164;-72
2022/12/29 00:46:38;;;;;;;2.42;1.15;;;;;;;11.19;100.00;99864.06;5047541;28;20434;-73
2022/12/29 00:51:53;;;;;;;2.97;1.55;;;;;;;11.25;100.00;99853.28;5046976;28;20076;-71
2022/12/29 00:54:20;;;;;;;1.48;1.00;;;;;;;11.28;100.00;99855.19;5050152;28;20044;-71
2022/12/29 00:56:48;;;;;;;0.93;0.90;;;;;;;11.21;100.00;99847.00;5046284;28;20152;-70
2022/12/29 00:59:14;;;;;;;1.48;0.82;;;;;;;11.27;100.00;99845.34;5056236;28;20798;-70
2022/12/29 01:01:42;;;;;;;2.90;1.13;;;;;;;11.29;100.00;99857.53;5048165;28;20581;-70
2022/12/29 01:04:09;;;;;;;0.93;0.80;;;;;;;11.34;100.00;99845.22;5046369;28;20051;-70
2022/12/29 01:06:38;;;;;;;2.70;0.85;;;;;;;11.38;100.00;99848.69;5044184;28;20052;-71
2022/12/29 01:11:52;;;;;;;0.75;0.60;;;;;;;11.33;100.00;99844.41;5038354;28;20578;-72
2022/12/29 01:14:19;;;;;;;1.52;1.02;;;;;;;11.28;100.00;99857.97;5042765;28;20040;-72
2022/12/29 01:16:45;;;;;;;0.57;0.57;;;;;;;11.32;100.00;99851.16;5042132;28;20053;-71
2022/12/29 01:19:13;;;;;;;2.50;1.35;;;;;;;11.30;100.00;99847.25;5046408;28;20055;-71
2022/12/29 01:21:40;;;;;;;2.63;1.35;;;;;;;11.24;100.00;99835.84;5038433;28;20049;-71
2022/12/29 01:24:06;;;;;;;2.25;1.27;;;;;;;11.30;100.00;99838.94;5043984;28;20056;-72
2022/12/29 01:26:33;;;;;;;0.57;0.47;;;;;;;11.27;100.00;99845.34;5038212;28;20063;-70
2022/12/29 01:29:00;;;;;;;1.63;1.20;;;;;;;11.24;100.00;99843.41;5036796;28;20060;-70
2022/12/29 01:31:26;;;;;;;2.70;1.33;;;;;;;11.35;100.00;99844.00;5042357;28;20063;-71
2022/12/29 01:33:52;;;;;;;1.02;0.57;;;;;;;11.43;100.00;99837.09;5039617;28;20163;-70
2022/12/29 01:36:19;;;;;;;1.48;0.85;;;;;;;11.51;100.00;99833.78;5045038;28;20052;-71
2022/12/29 01:38:46;;;;;;;2.85;1.17;;;;;;;11.49;100.00;99829.88;5053743;28;20059;-71
2022/12/29 01:41:14;;;;;;;0.50;0.50;;;;;;;11.61;100.00;99815.41;5069701;28;20048;-70
2022/12/29 01:43:41;;;;;;;1.02;0.77;;;;;;;11.68;100.00;99818.06;5069520;28;20063;-70
2022/12/29 01:46:34;;;;;;;1.83;1.23;;;;;;;11.71;100.00;99806.13;5078617;28;20048;-71
2022/12/29 01:49:23;;;;;;;0.85;0.80;;;;;;;11.77;100.00;99802.44;5067343;28;20139;-72
2022/12/29 01:52:00;;;;;;;0.50;0.50;;;;;;;11.84;100.00;99810.59;5068983;28;20571;-71
2022/12/29 01:54:49;;;;;;;1.77;1.10;;;;;;;11.89;100.00;99814.88;5061235;28;20044;-72
2022/12/29 01:57:20;;;;;;;0.40;0.40;;;;;;;11.90;100.00;99788.69;5068091;28;20131;-72
2022/12/29 01:59:55;;;;;;;0.47;0.47;;;;;;;11.99;100.00;99788.91;5069970;28;20139;-71
2022/12/29 02:02:23;;;;;;;0.85;0.73;;;;;;;12.03;100.00;99814.56;5060332;28;20052;-71
2022/12/29 02:04:53;;;;;;;2.03;1.10;;;;;;;12.05;100.00;99798.28;5069583;28;20036;-72
2022/12/29 02:07:24;;;;;;;1.20;0.52;;;;;;;12.16;100.00;99804.38;5069853;28;20056;-71
2022/12/29 02:09:52;;;;;;;1.45;0.95;;;;;;;12.17;100.00;99805.94;5076852;28;20052;-71
2022/12/29 02:12:21;;;;;;;1.85;0.98;;;;;;;12.17;100.00;99783.75;5067585;28;20137;-73
2022/12/29 02:14:53;;;;;;;2.47;0.80;;;;;;;12.20;100.00;99800.31;5069347;28;20052;-72
2022/12/29 02:17:28;;;;;;;0.80;0.73;;;;;;;12.22;100.00;99788.81;5065725;28;20041;-72
2022/12/29 02:20:05;;;;;;;;;;;;;;;12.23;100.00;99790.34;5069782;28;20048;-70
2022/12/29 02:22:40;;;;;;;0.47;0.47;;;;;;;12.25;100.00;99799.81;5065277;28;19924;-70
2022/12/29 02:25:19;;;;;;;1.77;0.80;;;;;;;12.32;100.00;99804.44;5068965;28;20040;-73
2022/12/29 02:27:51;;;;;;;2.10;0.73;;;;;;;12.39;100.00;99793.94;5068893;28;20055;-70
2022/12/29 02:30:29;;;;;;;0.60;0.60;;;;;;;12.47;100.00;99786.22;5067039;28;20121;-72
2022/12/29 02:33:29;;;;;;;0.80;0.55;;;;;;;12.50;100.00;99788.16;5065554;28;20048;-72
2022/12/29 02:36:07;;;;;;;1.13;0.70;;;;;;;12.51;100.00;99798.03;5065695;28;20040;-69
2022/12/29 02:38:55;;;;;;;2.83;1.48;;;;;;;12.51;100.00;99786.91;5062246;28;20182;-70
2022/12/29 02:41:51;;;;;;;1.75;0.65;;;;;;;12.51;100.00;99795.25;5067983;28;20090;-71
2022/12/29 02:44:42;;;;;;;0.55;0.50;;;;;;;12.61;100.00;99783.91;5057892;28;20056;-71
2022/12/29 02:47:23;;;;;;;3.58;0.93;;;;;;;12.61;100.00;99783.13;5068691;28;20052;-71
2022/12/29 02:50:00;;;;;;;1.27;0.45;;;;;;;12.62;100.00;99779.13;5068210;28;20778;-71
2022/12/29 02:52:33;;;;;;;3.80;0.68;;;;;;;12.76;100.00;99762.13;5060909;28;20047;-73
2022/12/29 02:55:00;;;;;;;2.45;0.60;;;;;;;12.71;100.00;99766.22;5066061;28;20059;-73
2022/12/29 02:57:26;;;;;;;4.78;1.10;;;;;;;12.68;100.00;99780.97;5068947;28;20044;-72
2022/12/29 03:00:07;;;;;;;1.25;0.52;;;;;;;12.80;100.00;99757.28;5067750;28;20055;-70
2022/12/29 03:02:58;;;;;;;1.52;0.88;;;;;;;12.80;100.00;99782.25;5067492;28;20058;-73
2022/12/29 03:05:34;;;;;;;3.90;1.17;;;;;;;12.84;100.00;99767.09;5068591;28;20044;-71
2022/12/29 03:08:14;;;;;;;;;;;;;;;12.86;100.00;99778.50;5069431;28;20498;-71
2022/12/29 03:10:50;;;;;;;5.93;1.27;;;;;;;12.91;100.00;99780.78;5066570;28;19928;-73
2022/12/29 03:16:45;;;;;;;0.55;0.55;;;;;;;12.92;100.00;99770.44;5066325;28;20052;-71
2022/12/29 03:19:23;;;;;;;2.47;0.88;;;;;;;12.79;100.00;99767.59;5066966;28;20097;-71
2022/12/29 03:22:27;;;;;;;2.70;1.00;;;;;;;12.74;100.00;99759.00;5067818;28;20049;-71
2022/12/29 03:25:02;;;;;;;0.90;0.82;;;;;;;12.79;100.00;99750.16;5063646;28;20093;-73
2022/12/29 03:27:34;;;;;;;2.45;0.77;;;;;;;12.71;100.00;99755.13;5068876;28;20589;-70
2022/12/29 03:30:04;;;;;;;1.95;1.02;;;;;;;12.79;100.00;99741.81;5065317;28;20052;-70
2022/12/29 03:32:38;;;;;;;4.05;0.90;;;;;;;12.79;100.00;99745.38;5065258;28;20132;-70
2022/12/29 03:35:07;;;;;;;3.10;1.08;;;;;;;12.79;100.00;99739.03;5067198;28;20049;-72
2022/12/29 03:37:42;;;;;;;3.38;1.17;;;;;;;12.80;100.00;99726.75;5067847;28;20052;-71
2022/12/29 03:40:09;;;;;;;1.48;0.75;;;;;;;12.85;100.00;99731.75;5067599;28;20158;-72
2022/12/29 03:42:37;;;;;;;1.58;1.05;;;;;;;12.83;100.00;99729.41;5065018;28;20044;-72
2022/12/29 03:45:06;;;;;;;3.72;1.08;;;;;;;12.82;100.00;99738.97;5067415;28;20106;-72
2022/12/29 03:47:33;;;;;;;2.10;1.00;;;;;;;12.89;100.00;99732.44;5068216;28;20055;-70
2022/12/29 03:49:59;;;;;;;3.45;1.13;;;;;;;12.90;100.00;99717.34;5061184;28;20060;-71
2022/12/29 03:52:26;;;;;;;3.47;0.90;;;;;;;12.94;100.00;99718.03;5067060;28;20040;-73
2022/12/29 03:54:52;;;;;;;4.57;1.20;;;;;;;12.92;100.00;99743.47;5067312;28;20088;-72
2022/12/29 03:57:19;;;;;;;1.02;0.82;;;;;;;13.03;100.00;99727.31;5071243;28;20049;-70
2022/12/29 03:59:45;;;;;;;1.30;0.88;;;;;;;12.96;100.00;99737.81;5067545;28;20049;-71
2022/12/29 04:02:12;;;;;;;0.60;0.60;;;;;;;12.93;100.00;99708.91;5064697;28;20067;-71
2022/12/29 04:04:39;;;;;;;1.05;0.70;;;;;;;12.88;100.00;99719.78;5066217;28;20068;-71
2022/12/29 04:07:06;;;;;;;1.98;0.80;;;;;;;12.75;100.00;99707.81;5068175;28;20150;-71
2022/12/29 04:09:32;;;;;;;0.52;0.52;;;;;;;12.74;100.00;99704.28;5064706;28;20758;-70
2022/12/29 04:11:59;;;;;;;2.20;0.77;;;;;;;12.77;100.00;99702.63;5067313;28;20074;-71
2022/12/29 04:14:26;;;;;;;2.22;0.70;;;;;;;12.72;100.00;99692.03;5067128;28;20059;-72
2022/12/29 04:16:52;;;;;;;1.88;0.68;;;;;;;12.72;100.00;99694.81;5064356;28;20049;-70
2022/12/29 04:19:19;;;;;;;1.40;0.70;;;;;;;12.80;100.00;99702.53;5072259;28;20052;-70
2022/12/29 04:21:45;;;;;;;4.53;1.05;;;;;;;12.88;100.00;99700.34;5066463;28;20045;-72
2022/12/29 04:24:12;;;;;;;2.58;0.77;;;;;;;12.95;100.00;99692.63;5058749;28;20594;-72
2022/12/29 04:26:39;;;;;;;1.65;0.80;;;;;;;12.92;100.00;99692.69;5066357;28;20056;-70
2022/12/29 04:29:05;;;;;;;1.73;0.77;;;;;;;12.93;100.00;99681.16;5067181;28;20524;-71
2022/12/29 04:31:32;;;;;;;1.05;0.50;;;;;;;12.93;100.00;99683.19;5067329;28;20052;-71
2022/12/29 04:33:59;;;;;;;3.03;1.00;;;;;;;12.96;100.00;99679.50;5066405;28;20053;-74
2022/12/29 04:36:26;;;;;;;0.63;0.50;;;;;;;12.89;100.00;99693.56;5066974;28;20044;-70
2022/12/29 04:38:56;;;;;;;1.23;0.60;;;;;;;12.93;100.00;99672.06;5070455;28;20117;-70
2022/12/29 04:41:22;;;;;;;0.82;0.70;;;;;;;12.83;100.00;99671.13;5066367;28;20056;-71
2022/12/29 04:43:49;;;;;;;1.17;0.65;;;;;;;12.91;100.00;99672.50;5067080;28;20080;-73
2022/12/29 04:46:15;;;;;;;1.63;0.60;;;;;;;12.89;100.00;99671.34;5065547;28;20044;-72
2022/12/29 04:48:43;;;;;;;2.08;1.00;;;;;;;12.89;100.00;99682.47;5068274;28;20048;-72
2022/12/29 04:51:10;;;;;;;3.28;1.05;;;;;;;12.97;100.00;99667.94;5064684;28;20056;-72
2022/12/29 04:53:36;;;;;;;1.05;0.57;;;;;;;13.07;100.00;99673.69;5066492;28;20044;-72
2022/12/29 04:56:03;;;;;;;3.63;1.10;;;;;;;13.01;100.00;99681.78;5066465;28;20425;-71
2022/12/29 04:58:29;;;;;;;3.80;0.55;;;;;;;13.22;100.00;99658.22;5067891;28;20075;-73
2022/12/29 05:00:56;;;;;;;1.52;0.88;;;;;;;13.21;100.00;99676.88;5066436;28;20044;-71
2022/12/29 05:03:22;;;;;;;1.42;0.70;;;;;;;13.37;100.00;99689.91;5058556;28;20502;-72
2022/12/29 05:05:49;;;;;;;2.22;0.90;;;;;;;13.36;100.00;99685.59;5069552;28;20049;-72
2022/12/29 05:08:15;;;;;;;2.17;0.90;;;;;;;13.41;100.00;99699.72;5071343;28;20058;-70
2022/12/29 05:10:45;;;;;;;1.35;0.88;;;;;;;13.43;100.00;99675.03;5070549;28;20047;-71
2022/12/29 05:13:12;;;;;;;0.60;0.45;;;;;;;13.42;100.00;99692.91;5069259;28;20084;-72
2022/12/29 05:15:39;;;;;;;1.17;0.90;;;;;;;13.51;100.00;99693.06;5067329;28;20045;-71
2022/12/29 05:18:06;;;;;;;1.80;0.30;;;;;;;13.52;100.00;99691.03;5070191;28;20044;-69
2022/12/29 05:20:32;;;;;;;1.10;0.57;;;;;;;13.45;100.00;99710.69;5069975;28;20055;-70
2022/12/29 05:22:59;;;;;;;0.65;0.35;;;;;;;13.49;100.00;99703.81;5070102;28;20599;-73
2022/12/29 05:25:25;;;;;;;2.40;0.90;;;;;;;13.43;100.00;99688.91;5070566;28;20447;-71
2022/12/29 05:27:52;;;;;;;1.10;0.90;;;;;;;13.45;100.00;99711.50;5072215;28;20071;-72
2022/12/29 05:30:19;;;;;;;2.65;0.60;;;;;;;13.45;100.00;99730.94;5070244;28;20048;-71
2022/12/29 05:32:45;;;;;;;0.30;0.30;;;;;;;13.55;100.00;99710.41;5068942;28;20053;-70
2022/12/29 05:35:12;;;;;;;0.50;0.50;;;;;;;13.52;100.00;99708.50;5069224;28;20418;-72
2022/12/29 05:37:40;;;;;;;0.32;0.30;;;;;;;13.47;100.00;99713.84;5071346;28;20083;-71
2022/12/29 05:40:07;;;;;;;1.92;1.00;;;;;;;13.49;100.00;99739.94;5067805;28;20699;-71
2022/12/29 05:42:34;;;;;;;3.70;1.42;;;;;;;13.16;100.00;99741.25;5069682;28;20124;-72
2022/12/29 05:45:00;;;;;;;3.15;1.23;;;;;;;12.74;100.00;99743.16;5069551;28;20053;-70
2022/12/29 05:47:27;;;;;;;1.92;1.25;;;;;;;12.67;100.00;99739.75;5067639;28;20052;-72
2022/12/29 05:49:53;;;;;;;9.15;1.90;;;;;;;12.46;100.00;99726.41;5070175;28;20056;-72
2022/12/29 05:52:20;;;;;;;2.13;1.70;;;;;;;12.40;100.00;99733.69;5069401;28;20054;-71
2022/12/29 05:54:46;;;;;;;3.25;1.15;;;;;;;12.39;100.00;99738.44;5069225;28;20052;-70
2022/12/29 05:57:12;;;;;;;3.15;0.93;;;;;;;12.57;100.00;99733.28;5069668;28;20147;-69
2022/12/29 05:59:39;;;;;;;2.90;0.90;;;;;;;12.74;100.00;99732.03;5066675;28;20053;-70
2022/12/29 06:02:05;;;;;;;5.05;1.30;;;;;;;12.86;100.00;99756.31;5066516;28;20056;-74
2022/12/29 06:04:32;;;;;;;11.23;1.63;;;;;;;12.93;100.00;99744.25;5068795;28;20080;-70
2022/12/29 06:06:59;;;;;;;3.60;0.88;;;;;;;12.98;100.00;99755.63;5069761;28;20756;-72
2022/12/29 06:09:25;;;;;;;3.63;1.25;;;;;;;13.02;100.00;99766.63;5068781;28;20045;-71
2022/12/29 06:11:52;;;;;;;3.17;0.70;;;;;;;13.06;100.00;99764.53;5068573;28;20041;-70
2022/12/29 06:14:19;;;;;;;2.22;1.08;;;;;;;13.00;100.00;99767.06;5065706;28;20135;-70
2022/12/29 06:16:45;;;;;;;0.98;0.70;;;;;;;13.02;100.00;99796.41;5069139;28;20211;-73
2022/12/29 06:19:12;;;;;;;3.40;1.08;;;;;;;12.99;100.00;99798.06;5069588;28;20398;-71
2022/12/29 06:21:38;;;;;;;5.15;1.20;;;;;;;12.99;100.00;99784.16;5069028;28;20048;-70
2022/12/29 06:24:05;;;;;;;4.28;0.55;;;;;;;13.02;100.00;99788.09;5066728;28;20055;-72
2022/12/29 06:26:31;;;;;;;4.85;1.17;;;;;;;12.90;100.00;99795.84;5067113;28;20778;-72
2022/12/29 06:28:58;;;;;;;3.72;1.00;;;;;;;12.79;100.00;99795.34;5068744;28;20056;-72
2022/12/29 06:31:24;;;;;;;3.83;1.50;;;;;;;12.87;100.00;99798.75;5076122;28;20482;-73
2022/12/29 06:33:51;;;;;;;5.20;0.85;;;;;;;12.88;100.00;99787.19;5068353;28;20131;-71
2022/12/29 06:36:17;;;;;;;2.58;0.90;;;;;;;12.87;100.00;99796.72;5068354;28;20049;-72
2022/12/29 06:38:44;;;;;;;5.72;1.23;;;;;;;12.76;100.00;99806.56;5067577;28;20599;-71
2022/12/29 06:41:11;;;;;;;1.10;0.60;;;;;;;12.77;100.00;99816.44;5066904;28;20490;-71
2022/12/29 06:43:37;;;;;;;4.35;1.13;;;;;;;12.79;100.00;99808.44;5070227;28;20036;-72
2022/12/29 06:46:05;;;;;;;3.95;0.73;;;;;;;12.89;100.00;99804.63;5069869;28;20052;-72
2022/12/29 06:48:32;;;;;;;5.50;0.80;;;;;;;12.81;100.00;99808.78;5068173;28;20062;-74
2022/12/29 06:50:58;;;;;;;1.35;1.15;;;;;;;12.72;100.00;99811.38;5067893;28;20041;-71
2022/12/29 06:53:25;;;;;;;3.30;1.42;;;;;;;12.71;100.00;99843.13;5068184;28;20098;-71
2022/12/29 06:55:51;;;;;;;4.20;1.40;;;;;;;12.77;100.00;99830.31;5075213;28;20040;-72
2022/12/29 06:58:18;;;;;;;4.47;1.38;;;;;;;12.68;100.00;99821.78;5067979;28;20052;-72
2022/12/29 07:00:44;;;;;;;3.92;1.17;;;;;;;12.71;100.00;99818.94;5068391;28;20101;-73
2022/12/29 07:03:11;;;;;;;8.35;1.90;;;;;;;12.65;100.00;99828.22;5061558;28;20058;-74
2022/12/29 07:05:37;;;;;;;2.65;0.93;;;;;;;12.74;100.00;99823.63;5066727;28;20043;-73
2022/12/29 07:08:04;;;;;;;0.73;0.50;;;;;;;12.75;100.00;99824.41;5073470;28;20052;-72
2022/12/29 07:10:31;;;;;;;3.28;1.15;;;;;;;12.71;100.00;99818.94;5069138;28;20067;-73
2022/12/29 07:12:58;;;;;;;3.65;1.40;;;;;;;12.72;100.00;99806.63;5058354;28;20127;-73
2022/12/29 07:15:24;;;;;;;1.88;0.73;;;;;;;12.70;100.00;99811.81;5063567;28;20506;-72
2022/12/29 07:17:51;;;;;;;2.28;0.85;;;;;;;12.70;100.00;99811.06;5070876;28;20047;-73
2022/12/29 07:20:18;;;;;;;1.25;0.75;;;;;;;12.78;100.00;99815.22;5066324;28;20052;-72
2022/12/29 07:22:51;;;;;;;6.18;1.63;;;;;;;12.81;100.00;99828.22;5067580;28;20075;-73
2022/12/29 07:25:18;;;;;;;2.53;0.93;;;;;;;12.80;100.00;99826.66;5063599;28;20079;-71
2022/12/29 07:27:44;;;;;;;7.07;1.67;;;;;;;12.82;100.00;99833.34;5068274;28;20879;-73
2022/12/29 07:30:11;;;;;;;1.73;0.88;;;;;;;12.80;100.00;99829.44;5061480;28;20516;-73
2022/12/29 07:32:38;;;;;;;1.77;0.73;;;;;;;12.78;100.00;99824.31;5067044;28;20044;-73
2022/12/29 07:35:05;;;;;;;3.05;1.33;;;;;;;12.68;100.00;99849.53;5068109;28;20502;-74
2022/12/29 07:37:31;;;;;;;3.08;1.48;;;;;;;12.67;100.00;99840.47;5066898;28;20056;-73
2022/12/29 07:39:58;;;;;;;5.13;1.33;;;;;;;12.69;100.00;99856.69;5068148;28;20123;-72
2022/12/29 07:42:24;;;;;;;5.95;1.95;;;;;;;12.72;100.00;99858.56;5066341;28;20059;-72
2022/12/29 07:44:51;;;;;;;4.45;1.00;;;;;;;12.75;100.00;99877.94;5064666;28;20044;-71
2022/12/29 07:47:18;;;;;;;3.33;1.20;;;;;;;12.90;100.00;99875.59;5065133;28;20151;-72
2022/12/29 07:49:45;;;;;;;5.50;1.52;;;;;;;12.80;100.00;99882.19;5065871;28;20051;-71
2022/12/29 07:52:11;;;;;;;2.95;1.25;;;;;;;12.78;100.00;99882.63;5064705;28;20066;-71
2022/12/29 07:54:38;;;;;;;3.70;1.15;;;;;;;12.68;100.00;99902.28;5059808;28;20045;-72
2022/12/29 07:57:05;;;;;;;8.77;1.80;;;;;;;12.88;100.00;99880.81;5066218;28;20416;-73
2022/12/29 07:59:32;;;;;;;9.02;2.10;;;;;;;12.73;100.00;99912.88;5062986;28;20599;-71
2022/12/29 08:01:58;;;;;;;2.25;0.80;;;;;;;12.85;100.00;99898.31;5062141;28;20534;-73
2022/12/29 08:04:25;;;;;;;3.08;1.27;;;;;;;12.80;100.00;99885.72;5067764;28;20045;-71
2022/12/29 08:06:52;;;;;;;4.78;1.25;;;;;;;12.79;100.00;99897.25;5063965;28;20199;-71
2022/12/29 08:09:18;;;;;;;5.20;1.02;;;;;;;12.80;100.00;99894.06;5062161;28;20056;-71
2022/12/29 08:11:50;;;;;;;4.00;1.30;;;;;;;12.70;100.00;99891.53;5059632;28;20048;-71
2022/12/29 08:14:16;;;;;;;5.43;1.02;;;;;;;12.85;100.00;99888.00;5065040;28;20052;-72
2022/12/29 08:16:43;;;;;;;6.40;1.30;;;;;;;12.75;100.00;99897.34;5063745;28;20045;-71
2022/12/29 08:19:12;;;;;;;2.78;0.98;;;;;;;12.73;100.00;99885.88;5069803;28;20637;-72
2022/12/29 08:21:39;;;;;;;3.17;0.65;;;;;;;12.71;100.00;99887.53;5070813;28;20076;-72
2022/12/29 08:24:08;;;;;;;5.95;1.67;;;;;;;12.67;100.00;99909.06;5065946;28;20590;-73
2022/12/29 08:26:34;;;;;;;8.82;1.83;;;;;;;12.70;100.00;99916.53;5065423;28;20059;-72
2022/12/29 08:29:01;;;;;;;7.03;1.38;;;;;;;12.76;100.00;99909.25;5064651;28;20051;-72
2022/12/29 08:31:27;;;;;;;1.67;0.98;;;;;;;12.69;100.00;99906.63;5065721;28;20482;-73
2022/12/29 08:33:54;;;;;;;6.55;1.00;;;;;;;12.75;100.00;99911.25;5064618;28;20053;-72
2022/12/29 08:36:20;;;;;;;5.25;0.93;;;;;;;12.70;100.00;99913.75;5064888;28;20646;-73
2022/12/29 08:38:47;;;;;;;9.32;1.80;;;;;;;12.70;100.00;99914.50;5072420;28;20048;-73
2022/12/29 08:41:13;;;;;;;12.57;1.98;;;;;;;12.66;100.00;99929.69;5074825;28;20059;-72
2022/12/29 08:43:40;;;;;;;4.68;1.35;;;;;;;12.73;100.00;99930.31;5076382;28;20052;-72
2022/12/29 08:46:06;;;;;;;7.10;1.15;;;;;;;12.65;100.00;99912.25;5077848;28;20152;-70
2022/12/29 08:48:33;;;;;;;8.82;1.70;;;;;;;12.67;100.00;99915.41;5071391;28;20114;-72
2022/12/29 08:51:00;;;;;;;1.60;0.80;;;;;;;12.48;100.00;99916.19;5069191;28;20541;-71
2022/12/29 08:53:26;;;;;;;6.18;1.52;;;;;;;12.55;100.00;99929.91;5070382;28;20716;-73
2022/12/29 08:55:58;;;;;;;8.80;1.48;;;;;;;12.52;100.00;99930.00;5069646;28;20051;-72
2022/12/29 08:58:30;;;;;;;2.97;1.05;;;;;;;12.53;100.00;99932.31;5072802;28;20537;-73
2022/12/29 09:00:58;;;;;;;9.20;2.75;;;;;;;12.40;100.00;99928.66;5074819;28;20051;-72
2022/12/29 09:03:25;;;;;;;7.40;1.25;;;;;;;12.47;100.00;99924.94;5062405;28;20040;-73
2022/12/29 09:06:12;;;;;;;6.93;1.95;;;;;;;12.43;100.00;99930.56;5075183;28;20051;-73
2022/12/29 09:08:38;;;;;;;3.40;1.50;;;;;;;12.47;100.00;99927.72;5072499;28;20070;-74
2022/12/29 09:11:09;;;;;;;4.70;1.83;;;;;;;12.44;100.00;99934.13;5071286;28;20140;-72
2022/12/29 09:13:36;;;;;;;3.45;1.00;;;;;;;12.52;100.00;99925.22;5068374;28;20557;-73
2022/12/29 09:16:03;;;;;;;5.60;1.27;;;;;;;12.59;100.00;99915.97;5068852;28;20189;-74
2022/12/29 09:18:30;;;;;;;12.50;2.15;;;;;;;12.54;100.00;99938.66;5070815;28;20575;-72
2022/12/29 09:21:03;;;;;;;4.88;0.95;;;;;;;12.67;100.00;99929.28;5067051;28;20052;-70
2022/12/29 09:23:30;;;;;;;8.25;2.28;;;;;;;12.60;100.00;99936.97;5067805;28;20040;-72
2022/12/29 09:25:56;;;;;;;16.13;2.60;;;;;;;12.65;100.00;99950.31;5069387;28;20123;-72
2022/12/29 09:28:23;;;;;;;4.28;1.58;;;;;;;12.83;100.00;99959.06;5061910;28;20470;-73
2022/12/29 09:30:50;;;;;;;3.42;1.10;;;;;;;12.82;100.00;99954.69;5070851;28;20044;-72
2022/12/29 09:33:17;;;;;;;8.88;2.30;;;;;;;12.77;100.00;99963.56;5069976;28;20044;-72
2022/12/29 09:35:49;;;;;;;13.63;2.38;;;;;;;12.74;100.00;99944.97;5068246;28;20044;-71
2022/12/29 09:38:16;;;;;;;8.85;2.00;;;;;;;12.65;100.00;99955.88;5070804;28;20068;-73
2022/12/29 09:40:49;;;;;;;7.13;1.70;;;;;;;12.70;100.00;99944.28;5076402;28;20044;-72
2022/12/29 09:43:44;;;;;;;10.88;1.65;;;;;;;12.68;100.00;99952.25;5063085;28;20131;-74
2022/12/29 09:46:31;;;;;;;4.85;1.02;;;;;;;12.71;100.00;99948.59;5065297;28;20052;-73
2022/12/29 09:49:27;;;;;;;5.68;0.95;;;;;;;12.60;100.00;99939.72;5064691;28;20513;-72
2022/12/29 09:52:00;;;;;;;5.95;1.95;;;;;;;12.50;100.00;99980.38;5059975;28;20071;-72
2022/12/29 09:54:38;;;;;;;6.63;1.70;;;;;;;12.54;100.00;99953.34;5058702;28;20066;-71
2022/12/29 09:57:14;;;;;;;7.85;2.10;;;;;;;12.50;100.00;99976.81;5052226;28;20055;-73
2022/12/29 09:59:44;;;;;;;1.60;1.02;;;;;;;12.62;100.00;99956.72;5067792;28;20151;-70
2022/12/29 10:02:27;;;;;;;6.57;1.38;;;;;;;12.56;100.00;99978.66;5061074;28;21924;-72
2022/12/29 10:04:53;;;;;;;3.47;1.20;;;;;;;12.60;100.00;99954.41;5064407;28;20103;-71
2022/12/29 10:07:39;;;;;;;9.00;1.95;;;;;;;12.49;100.00;99969.72;5062949;28;20052;-71
2022/12/29 10:10:12;;;;;;;7.43;1.10;;;;;;;12.63;100.00;99955.53;5067741;28;20053;-73
2022/12/29 10:13:11;;;;;;;7.38;2.20;;;;;;;12.48;100.00;99968.91;5065618;28;20055;-73
2022/12/29 10:15:55;;;;;;;5.97;1.40;;;;;;;12.61;100.00;99955.97;5056067;28;20391;-73
2022/12/29 10:18:43;;;;;;;1.15;1.00;;;;;;;12.68;100.00;99969.69;5064190;28;20074;-73
2022/12/29 10:21:22;;;;;;;6.57;1.50;;;;;;;12.54;100.00;99955.31;5066595;28;20052;-72
2022/12/29 10:23:52;;;;;;;5.50;0.90;;;;;;;12.62;100.00;99951.16;5066587;28;20048;-73
2022/12/29 10:26:26;;;;;;;10.95;1.48;;;;;;;12.64;100.00;99962.63;5067561;28;20490;-72
2022/12/29 10:29:02;;;;;;;6.07;0.88;;;;;;;12.71;100.00;99970.81;5069312;28;20053;-73
2022/12/29 10:31:38;;;;;;;2.90;1.10;;;;;;;12.77;100.00;99961.56;5060950;28;20072;-74
2022/12/29 10:34:20;;;;;;;10.40;1.58;;;;;;;12.66;100.00;99958.22;5022878;28;20044;-73
2022/12/29 10:36:50;;;;;;;7.28;1.75;;;;;;;12.83;100.00;99972.94;5044058;28;20494;-73
2022/12/29 10:39:26;;;;;;;7.03;1.45;;;;;;;12.67;100.00;99995.09;5031439;28;20052;-72
2022/12/29 10:42:12;;;;;;;13.45;2.45;;;;;;;12.65;100.00;99970.53;5027114;28;20044;-71
2022/12/29 10:44:38;;;;;;;4.15;1.25;;;;;;;12.72;100.00;99964.03;5044186;28;20052;-73
2022/12/29 10:47:14;;;;;;;5.85;1.65;;;;;;;12.62;100.00;99967.81;5044031;28;20051;-73
2022/12/29 10:49:45;;;;;;;9.10;1.77;;;;;;;12.82;100.00;99960.25;5045860;28;20903;-74
2022/12/29 10:52:13;;;;;;;4.70;1.58;;;;;;;12.67;100.00;99990.34;5033514;28;20086;-72
2022/12/29 10:55:11;;;;;;;9.48;2.20;;;;;;;12.59;100.00;99993.69;5028036;28;20078;-71
2022/12/29 10:57:43;;;;;;;8.50;2.03;;;;;;;12.61;100.00;99971.81;5028248;28;20068;-72
2022/12/29 11:00:20;;;;;;;6.22;1.40;;;;;;;12.67;100.00;99990.34;5029373;28;20053;-74
2022/12/29 11:03:03;;;;;;;9.57;2.42;;;;;;;12.58;100.00;99992.88;5019140;28;20060;-74
2022/12/29 11:06:26;;;;;;;8.27;1.80;;;;;;;12.63;100.00;99981.28;5016667;28;20071;-72
2022/12/29 11:08:59;;;;;;;13.48;3.08;;;;;;;12.67;100.00;99986.75;4986185;28;20580;-73
2022/12/29 11:11:33;;;;;;;7.25;1.48;;;;;;;12.76;100.00;99990.50;5025653;28;20517;-70
2022/12/29 11:14:09;;;;;;;7.10;1.90;;;;;;;12.71;100.00;99991.03;5028939;28;20048;-70
2022/12/29 11:16:35;;;;;;;11.68;2.92;;;;;;;12.56;100.00;99997.31;5044444;28;20059;-73
2022/12/29 11:19:02;;;;;;;3.33;2.15;;;;;;;12.71;100.00;100004.13;5036122;28;20080;-73
2022/12/29 11:21:42;;;;;;;4.97;1.45;;;;;;;12.65;100.00;100001.06;5037663;28;20335;-74
2022/12/29 11:24:26;;;;;;;6.97;2.03;;;;;;;12.57;100.00;99996.09;5031047;28;20124;-72
2022/12/29 11:26:58;;;;;;;3.83;1.15;;;;;;;12.56;100.00;100020.28;5030466;28;20056;-75
2022/12/29 11:29:28;;;;;;;5.90;1.73;;;;;;;12.59;100.00;100000.00;5032279;28;20877;-72
2022/12/29 11:31:58;;;;;;;9.23;2.25;;;;;;;12.57;100.00;99999.66;5034905;28;20068;-74
2022/12/29 11:34:31;;;;;;;10.02;1.77;;;;;;;12.65;100.00;100019.69;5039007;28;20059;-74
2022/12/29 11:37:01;;;;;;;4.80;1.38;;;;;;;12.58;100.00;100017.06;5026438;28;20052;-74
2022/12/29 11:39:57;;;;;;;4.63;0.95;;;;;;;12.66;100.00;100010.19;5029530;28;20906;-71
2022/12/29 11:42:32;;;;;;;11.40;2.60;;;;;;;12.60;100.00;100029.34;5027787;28;20821;-71
2022/12/29 11:45:05;;;;;;;13.32;3.28;;;;;;;12.60;100.00;100025.75;5026279;28;21955;-71
2022/12/29 11:47:36;;;;;;;7.90;2.17;;;;;;;12.53;100.00;100046.09;5026297;28;20077;-74
2022/12/29 11:50:06;;;;;;;6.68;1.35;;;;;;;12.63;100.00;100019.34;5037409;28;20059;-73
2022/12/29 11:52:39;;;;;;;6.03;1.33;;;;;;;12.76;100.00;100036.94;5030580;28;20053;-72
2022/12/29 11:55:17;;;;;;;11.98;2.63;;;;;;;12.66;100.00;100035.16;5029176;28;20052;-72
2022/12/29 11:57:45;;;;;;;10.18;2.53;;;;;;;12.62;100.00;100012.22;5024106;28;20055;-72
2022/12/29 12:00:19;;;;;;;10.27;2.10;;;;;;;12.74;100.00;100039.34;5025368;28;20056;-72
2022/12/29 12:03:01;;;;;;;10.23;2.25;;;;;;;12.60;100.00;100037.66;5025422;28;20055;-73
2022/12/29 12:05:41;;;;;;;8.63;2.00;;;;;;;12.66;100.00;100046.25;5026070;28;20048;-72
2022/12/29 12:08:08;;;;;;;9.40;1.85;;;;;;;12.72;100.00;100050.09;5036704;28;20041;-71
2022/12/29 12:10:58;;;;;;;8.77;1.75;;;;;;;12.66;100.00;100041.47;5026503;28;20049;-74
2022/12/29 12:13:52;;;;;;;10.45;1.77;;;;;;;12.68;100.00;100043.81;5031226;28;20544;-73
2022/12/29 12:16:22;;;;;;;8.50;1.83;;;;;;;12.67;100.00;100054.16;5028781;28;20049;-73